createdAt,value
2019-02-25T00:01:56.978Z,4.30
2019-02-25T00:05:19.331Z,4.20
2019-02-25T00:07:48.984Z,4.10
2019-02-25T00:10:42.146Z,4.00
2019-02-25T00:13:18.087Z,4.00
2019-02-25T00:19:13.544Z,3.70
2019-02-25T00:21:46.249Z,3.50
2019-02-25T00:24:32.476Z,3.40
2019-02-25T00:27:12.244Z,3.40
2019-02-25T00:29:44.403Z,3.30
2019-02-25T00:32:15.159Z,3.30
2019-02-25T00:34:45.756Z,3.30
2019-02-25T00:37:46.441Z,3.20
2019-02-25T00:40:41.749Z,3.10
2019-02-25T00:43:44.280Z,3.00
2019-02-25T00:46:21.635Z,3.00
2019-02-25T00:49:12.884Z,3.00
2019-02-25T00:51:47.607Z,3.10
2019-02-25T00:54:43.834Z,3.10
2019-02-25T00:57:39.974Z,3.10
2019-02-25T01:00:14.183Z,2.90
2019-02-25T01:03:20.614Z,2.80
2019-02-25T01:07:29.724Z,2.80
2019-02-25T01:08:48.716Z,2.70
2019-02-25T01:11:31.859Z,2.70
2019-02-25T01:14:25.239Z,2.70
2019-02-25T01:17:18.372Z,2.90
2019-02-25T01:19:54.922Z,2.90
2019-02-25T01:22:44.705Z,3.00
2019-02-25T01:25:23.605Z,3.10
2019-02-25T01:28:31.578Z,3.20
2019-02-25T01:31:10.661Z,3.20
2019-02-25T01:33:48.849Z,3.20
2019-02-25T01:36:28.328Z,3.10
2019-02-25T01:39:23.181Z,3.10
2019-02-25T01:41:48.447Z,3.00
2019-02-25T01:44:19.304Z,3.00
2019-02-25T01:46:58.046Z,3.00
2019-02-25T01:49:44.722Z,3.00
2019-02-25T01:52:20.510Z,3.10
2019-02-25T01:55:18.531Z,3.20
2019-02-25T01:57:49.534Z,3.30
2019-02-25T02:00:45.565Z,3.30
2019-02-25T02:03:45.770Z,3.30
2019-02-25T02:09:55.402Z,3.30
2019-02-25T02:13:20.621Z,3.30
2019-02-25T02:16:19.012Z,3.30
2019-02-25T02:18:23.097Z,3.30
2019-02-25T02:21:11.267Z,3.20
2019-02-25T02:23:48.770Z,3.20
2019-02-25T02:26:22.959Z,3.10
2019-02-25T02:28:53.789Z,3.10
2019-02-25T02:31:43.185Z,3.10
2019-02-25T02:34:24.519Z,3.00
2019-02-25T02:37:13.714Z,3.00
2019-02-25T02:40:09.009Z,3.00
2019-02-25T02:42:26.000Z,3.00
2019-02-25T02:45:46.148Z,3.00
2019-02-25T02:48:55.358Z,2.90
2019-02-25T02:51:58.909Z,2.80
2019-02-25T02:54:42.991Z,2.80
2019-02-25T02:57:16.737Z,2.80
2019-02-25T02:59:55.558Z,2.70
2019-02-25T03:02:57.918Z,2.70
2019-02-25T03:05:54.109Z,2.70
2019-02-25T03:11:28.102Z,2.40
2019-02-25T03:13:59.143Z,2.30
2019-02-25T03:16:51.742Z,2.30
2019-02-25T03:19:30.204Z,2.30
2019-02-25T03:22:24.187Z,2.30
2019-02-25T03:24:55.940Z,2.30
2019-02-25T03:27:27.345Z,2.30
2019-02-25T03:30:25.906Z,2.30
2019-02-25T03:33:03.314Z,2.40
2019-02-25T03:35:50.414Z,2.50
2019-02-25T03:38:23.018Z,2.70
2019-02-25T03:41:23.284Z,2.80
2019-02-25T03:43:54.635Z,2.90
2019-02-25T03:46:55.238Z,2.80
2019-02-25T03:49:29.700Z,2.80
2019-02-25T03:52:13.574Z,2.80
2019-02-25T03:57:45.998Z,2.70
2019-02-25T04:00:19.810Z,2.70
2019-02-25T04:03:13.872Z,2.70
2019-02-25T04:05:45.387Z,2.70
2019-02-25T04:08:16.637Z,2.70
2019-02-25T04:11:01.182Z,2.60
2019-02-25T04:13:45.865Z,2.60
2019-02-25T04:16:20.683Z,2.60
2019-02-25T04:18:54.125Z,2.60
2019-02-25T04:22:12.816Z,2.60
2019-02-25T04:24:52.583Z,2.60
2019-02-25T04:27:48.323Z,2.50
2019-02-25T04:30:46.246Z,2.60
2019-02-25T04:33:19.998Z,2.60
2019-02-25T04:35:53.971Z,2.50
2019-02-25T04:38:46.602Z,2.50
2019-02-25T04:41:37.829Z,2.50
2019-02-25T04:44:39.706Z,2.50
2019-02-25T04:47:15.171Z,2.50
2019-02-25T04:50:05.170Z,2.50
2019-02-25T04:52:50.603Z,2.50
2019-02-25T04:55:47.235Z,2.50
2019-02-25T04:58:18.191Z,2.50
2019-02-25T05:04:12.690Z,2.50
2019-02-25T05:06:43.719Z,2.50
2019-02-25T05:09:18.467Z,2.50
2019-02-25T05:11:49.391Z,2.40
2019-02-25T05:14:20.856Z,2.40
2019-02-25T05:19:47.367Z,2.40
2019-02-25T05:22:27.868Z,2.40
2019-02-25T05:25:16.802Z,2.30
2019-02-25T05:27:49.671Z,2.30
2019-02-25T05:30:40.882Z,2.40
2019-02-25T05:33:17.615Z,2.30
2019-02-25T05:35:54.142Z,2.20
2019-02-25T05:38:30.685Z,2.20
2019-02-25T05:41:12.302Z,2.20
2019-02-25T05:43:46.721Z,2.20
2019-02-25T05:46:20.699Z,2.30
2019-02-25T05:49:04.285Z,2.30
2019-02-25T05:51:35.191Z,2.20
2019-02-25T05:54:08.031Z,2.20
2019-02-25T05:56:43.685Z,2.20
2019-02-25T05:59:23.928Z,2.20
2019-02-25T06:02:07.986Z,2.10
2019-02-25T06:04:44.239Z,2.20
2019-02-25T06:07:38.524Z,2.30
2019-02-25T06:10:09.741Z,2.30
2019-02-25T06:12:43.939Z,2.30
2019-02-25T06:15:17.817Z,2.30
2019-02-25T06:18:10.013Z,2.30
2019-02-25T06:20:59.009Z,2.30
2019-02-25T06:23:39.469Z,2.30
2019-02-25T06:26:13.516Z,2.30
2019-02-25T06:29:05.108Z,2.30
2019-02-25T06:31:38.218Z,2.40
2019-02-25T06:34:12.769Z,2.50
2019-02-25T06:37:02.975Z,2.60
2019-02-25T06:39:39.808Z,2.70
2019-02-25T06:42:10.788Z,2.80
2019-02-25T06:44:42.044Z,2.90
2019-02-25T06:47:33.985Z,3.10
2019-02-25T06:50:39.617Z,3.20
2019-02-25T06:56:41.146Z,3.50
2019-02-25T06:59:31.999Z,4.70
2019-02-25T07:02:14.606Z,6.50
2019-02-25T07:05:32.399Z,8.00
2019-02-25T07:08:40.567Z,9.50
2019-02-25T07:12:02.625Z,11.10
2019-02-25T07:15:02.730Z,12.80
2019-02-25T07:18:11.693Z,14.40
2019-02-25T07:21:38.675Z,15.90
2019-02-25T07:25:19.787Z,17.20
2019-02-25T07:28:30.273Z,18.80
2019-02-25T07:31:41.033Z,19.80
2019-02-25T07:34:47.924Z,20.50
2019-02-25T07:37:44.755Z,21.10
2019-02-25T07:48:33.665Z,23.20
2019-02-25T07:58:49.699Z,24.70
2019-02-25T08:01:12.375Z,25.30
2019-02-25T08:04:23.650Z,25.70
2019-02-25T08:07:19.479Z,26.60
2019-02-25T08:10:20.931Z,27.10
2019-02-25T08:13:42.919Z,28.30
2019-02-25T08:19:26.069Z,29.00
2019-02-25T08:22:19.530Z,29.30
2019-02-25T08:25:09.197Z,29.60
2019-02-25T08:27:59.476Z,30.00
2019-02-25T08:30:40.878Z,30.60
2019-02-25T08:33:30.851Z,31.10
2019-02-25T08:37:10.638Z,31.80
2019-02-25T08:39:51.731Z,32.40
2019-02-25T08:42:47.152Z,33.60
2019-02-25T08:45:55.461Z,33.70
2019-02-25T08:48:35.682Z,34.20
2019-02-25T08:51:06.609Z,34.50
2019-02-25T08:53:37.454Z,34.90
2019-02-25T08:56:08.525Z,34.30
2019-02-25T08:58:39.467Z,33.50
2019-02-25T09:01:12.090Z,33.80
2019-02-25T09:03:44.804Z,33.70
2019-02-25T09:06:15.650Z,34.80
2019-02-25T09:08:46.642Z,35.90
2019-02-25T09:11:19.359Z,36.80
2019-02-25T09:13:50.139Z,36.60
2019-02-25T09:16:21.667Z,36.40
2019-02-25T09:18:52.565Z,36.50
2019-02-25T09:21:31.582Z,36.10
2019-02-25T09:23:56.500Z,36.40
2019-02-25T09:26:27.212Z,35.50
2019-02-25T09:28:57.938Z,35.80
2019-02-25T09:31:29.014Z,36.50
2019-02-25T09:34:00.028Z,37.30
2019-02-25T09:36:30.841Z,38.20
2019-02-25T09:39:01.796Z,38.10
2019-02-25T09:41:32.637Z,37.70
2019-02-25T09:44:03.634Z,37.50
2019-02-25T09:46:34.363Z,37.60
2019-02-25T09:49:05.146Z,37.70
2019-02-25T09:51:36.072Z,38.50
2019-02-25T09:54:06.737Z,38.60
2019-02-25T09:56:37.483Z,39.00
2019-02-25T09:59:08.321Z,39.20
2019-02-25T10:01:39.246Z,39.10
2019-02-25T10:04:09.968Z,38.90
2019-02-25T10:06:40.980Z,39.70
2019-02-25T10:09:11.735Z,39.90
2019-02-25T10:11:42.521Z,39.90
2019-02-25T10:14:14.169Z,39.90
2019-02-25T10:19:11.930Z,40.30
2019-02-25T10:21:42.702Z,40.50
2019-02-25T10:24:13.417Z,40.60
2019-02-25T10:26:44.265Z,40.80
2019-02-25T10:29:15.294Z,40.90
2019-02-25T10:31:46.729Z,41.20
2019-02-25T10:34:18.095Z,41.50
2019-02-25T10:36:50.287Z,42.00
2019-02-25T10:39:21.927Z,41.70
2019-02-25T10:41:53.300Z,42.50
2019-02-25T10:44:24.987Z,43.00
2019-02-25T10:46:55.962Z,43.20
2019-02-25T10:49:28.747Z,43.80
2019-02-25T10:51:59.242Z,44.50
2019-02-25T10:54:29.905Z,44.20
2019-02-25T10:57:06.608Z,43.90
2019-02-25T10:59:39.104Z,43.90
2019-02-25T11:02:17.009Z,43.80
2019-02-25T11:04:49.298Z,42.90
2019-02-25T11:07:20.351Z,41.90
2019-02-25T11:09:58.253Z,41.50
2019-02-25T11:12:30.115Z,41.30
2019-02-25T11:15:01.767Z,40.90
2019-02-25T11:17:32.652Z,40.40
2019-02-25T11:20:05.569Z,38.90
2019-02-25T11:22:37.626Z,38.80
2019-02-25T11:25:15.986Z,38.60
2019-02-25T11:27:47.241Z,36.90
2019-02-25T11:30:19.359Z,37.40
2019-02-25T11:32:53.209Z,37.30
2019-02-25T11:35:23.691Z,37.30
2019-02-25T11:37:56.662Z,36.30
2019-02-25T11:40:28.951Z,35.40
2019-02-25T11:42:59.750Z,34.80
2019-02-25T11:45:30.750Z,34.30
2019-02-25T11:48:01.333Z,33.20
2019-02-25T11:50:32.090Z,32.40
2019-02-25T11:53:02.840Z,30.90
2019-02-25T11:55:33.701Z,29.40
2019-02-25T11:58:04.597Z,27.80
2019-02-25T12:00:35.376Z,25.80
2019-02-25T12:03:06.028Z,24.00
2019-02-25T12:05:36.705Z,22.40
2019-02-25T12:08:07.477Z,21.10
2019-02-25T12:10:38.077Z,20.20
2019-02-25T12:13:08.779Z,19.50
2019-02-25T12:15:39.425Z,19.10
2019-02-25T12:18:10.359Z,18.70
2019-02-25T12:21:07.224Z,18.50
2019-02-25T12:24:22.293Z,18.30
2019-02-25T12:26:57.848Z,18.10
2019-02-25T12:32:54.314Z,17.80
2019-02-25T12:35:33.992Z,18.00
2019-02-25T12:38:18.711Z,18.20
2019-02-25T12:41:11.768Z,18.50
2019-02-25T12:44:14.567Z,18.60
2019-02-25T12:47:30.022Z,18.70
2019-02-25T12:50:22.160Z,18.70
2019-02-25T12:55:51.701Z,18.50
2019-02-25T12:58:24.419Z,18.50
2019-02-25T13:01:17.733Z,18.40
2019-02-25T13:04:18.607Z,18.40
2019-02-25T13:06:59.865Z,18.20
2019-02-25T13:09:30.862Z,17.90
2019-02-25T13:12:01.587Z,17.70
2019-02-25T13:14:32.461Z,17.60
2019-02-25T13:17:03.237Z,17.50
2019-02-25T13:19:34.206Z,17.40
2019-02-25T13:22:05.023Z,17.30
2019-02-25T13:24:46.292Z,17.20
2019-02-25T13:27:17.245Z,17.10
2019-02-25T13:29:49.668Z,17.10
2019-02-25T13:32:20.814Z,17.10
2019-02-25T13:34:51.831Z,17.10
2019-02-25T13:37:22.719Z,17.00
2019-02-25T13:39:53.625Z,16.90
2019-02-25T13:42:24.618Z,16.90
2019-02-25T13:44:55.468Z,16.80
2019-02-25T13:47:26.528Z,16.70
2019-02-25T13:49:57.534Z,16.60
2019-02-25T13:52:28.481Z,16.40
2019-02-25T13:54:59.391Z,16.40
2019-02-25T13:57:30.264Z,16.40
2019-02-25T14:00:01.368Z,16.30
2019-02-25T14:02:32.209Z,16.20
2019-02-25T14:05:03.797Z,16.20
2019-02-25T14:07:34.457Z,16.20
2019-02-25T14:10:07.995Z,16.20
2019-02-25T14:12:38.986Z,16.10
2019-02-25T14:15:09.980Z,16.10
2019-02-25T14:17:41.380Z,16.00
2019-02-25T14:20:17.147Z,16.00
2019-02-25T14:22:48.590Z,15.90
2019-02-25T14:25:21.531Z,15.80
2019-02-25T14:27:52.669Z,15.80
2019-02-25T14:30:26.867Z,15.70
2019-02-25T14:32:58.491Z,15.70
2019-02-25T14:35:32.296Z,15.60
2019-02-25T14:38:07.462Z,15.60
2019-02-25T14:40:39.394Z,15.60
2019-02-25T14:43:12.601Z,15.50
2019-02-25T14:45:41.897Z,15.40
2019-02-25T14:48:18.146Z,15.40
2019-02-25T14:50:50.809Z,15.30
2019-02-25T14:53:21.787Z,15.30
2019-02-25T14:55:55.275Z,15.30
2019-02-25T14:58:25.214Z,15.20
2019-02-25T15:00:55.835Z,15.10
2019-02-25T15:03:28.692Z,15.00
2019-02-25T15:05:59.615Z,14.90
2019-02-25T15:08:33.139Z,14.90
2019-02-25T15:11:07.114Z,14.80
2019-02-25T15:13:39.127Z,14.80
2019-02-25T15:16:10.216Z,14.80
2019-02-25T15:18:43.945Z,14.70
2019-02-25T15:21:17.812Z,14.60
2019-02-25T15:23:48.738Z,14.60
2019-02-25T15:26:21.556Z,14.50
2019-02-25T15:28:56.064Z,14.40
2019-02-25T15:31:25.169Z,14.30
2019-02-25T15:33:58.180Z,14.30
2019-02-25T15:36:32.031Z,14.20
2019-02-25T15:39:05.454Z,14.20
2019-02-25T15:41:38.509Z,14.10
2019-02-25T15:44:23.676Z,14.10
2019-02-25T15:46:54.909Z,14.00
2019-02-25T15:49:29.006Z,13.90
2019-02-25T15:51:59.789Z,13.80
2019-02-25T15:54:32.764Z,13.70
2019-02-25T15:57:03.405Z,13.60
2019-02-25T15:59:35.921Z,13.50
2019-02-25T16:02:09.392Z,13.30
2019-02-25T16:04:42.211Z,13.20
2019-02-25T16:07:13.244Z,13.10
2019-02-25T16:09:44.633Z,13.00
2019-02-25T16:12:15.558Z,12.60
2019-02-25T16:14:47.209Z,12.80
2019-02-25T16:17:19.040Z,12.60
2019-02-25T16:19:53.125Z,12.60
2019-02-25T16:22:25.788Z,12.50
2019-02-25T16:24:56.974Z,12.50
2019-02-25T16:27:29.191Z,12.40
2019-02-25T16:30:00.651Z,12.40
2019-02-25T16:32:32.481Z,12.30
2019-02-25T16:35:04.969Z,12.20
2019-02-25T16:37:36.050Z,12.10
2019-02-25T16:40:10.423Z,12.00
2019-02-25T16:42:41.454Z,11.90
2019-02-25T16:45:17.196Z,11.80
2019-02-25T16:47:48.094Z,11.70
2019-02-25T16:50:20.949Z,11.60
2019-02-25T16:52:51.880Z,11.50
2019-02-25T16:55:25.067Z,11.50
2019-02-25T16:57:55.483Z,11.40
2019-02-25T17:00:29.407Z,11.30
2019-02-25T17:03:01.391Z,11.20
2019-02-25T17:05:30.904Z,11.10
2019-02-25T17:08:03.407Z,11.00
2019-02-25T17:10:34.126Z,10.80
2019-02-25T17:13:05.859Z,10.60
2019-02-25T17:15:37.386Z,10.50
2019-02-25T17:18:08.099Z,10.30
2019-02-25T17:20:38.667Z,10.30
2019-02-25T17:23:10.187Z,10.20
2019-02-25T17:25:43.340Z,10.10
2019-02-25T17:28:15.324Z,10.10
2019-02-25T17:30:47.356Z,10.00
2019-02-25T17:33:18.330Z,9.90
2019-02-25T17:35:49.857Z,9.90
2019-02-25T17:38:23.006Z,9.80
2019-02-25T17:40:53.816Z,9.80
2019-02-25T17:43:24.496Z,9.70
2019-02-25T17:45:56.382Z,9.70
2019-02-25T17:48:27.628Z,9.60
2019-02-25T17:50:59.895Z,9.70
2019-02-25T17:53:32.320Z,9.70
2019-02-25T17:56:04.731Z,9.60
2019-02-25T17:58:35.950Z,9.60
2019-02-25T18:01:09.597Z,9.50
2019-02-25T18:03:43.480Z,9.40
2019-02-25T18:06:16.658Z,9.30
2019-02-25T18:08:47.859Z,9.30
2019-02-25T18:11:20.279Z,9.20
2019-02-25T18:13:53.357Z,9.10
2019-02-25T18:16:24.422Z,9.00
2019-02-25T18:18:57.302Z,8.90
2019-02-25T18:21:28.954Z,8.80
2019-02-25T18:23:59.729Z,8.80
2019-02-25T18:26:31.109Z,8.70
2019-02-25T18:29:07.301Z,8.70
2019-02-25T18:31:37.967Z,8.60
2019-02-25T18:34:11.226Z,8.50
2019-02-25T18:36:42.586Z,8.50
2019-02-25T18:39:17.686Z,8.40
2019-02-25T18:41:48.770Z,8.40
2019-02-25T18:44:20.588Z,8.40
2019-02-25T18:46:52.321Z,8.40
2019-02-25T18:49:26.635Z,8.30
2019-02-25T18:51:57.308Z,8.30
2019-02-25T18:54:28.383Z,8.20
2019-02-25T18:57:00.762Z,8.20
2019-02-25T18:59:31.497Z,8.10
2019-02-25T19:02:07.453Z,8.10
2019-02-25T19:04:39.214Z,8.00
2019-02-25T19:07:10.498Z,7.90
2019-02-25T19:09:43.077Z,7.80
2019-02-25T19:12:13.999Z,7.70
2019-02-25T19:14:51.078Z,7.60
2019-02-25T19:17:20.970Z,7.60
2019-02-25T19:19:53.589Z,7.60
2019-02-25T19:22:24.486Z,7.60
2019-02-25T19:24:55.285Z,7.50
2019-02-25T19:27:27.746Z,7.50
2019-02-25T19:30:00.248Z,7.50
2019-02-25T19:32:33.405Z,7.50
2019-02-25T19:35:06.860Z,7.50
2019-02-25T19:37:38.216Z,7.40
2019-02-25T19:40:13.948Z,7.40
2019-02-25T19:42:47.298Z,7.40
2019-02-25T19:45:17.447Z,7.30
2019-02-25T19:47:48.379Z,7.30
2019-02-25T19:50:50.270Z,7.30
2019-02-25T19:53:04.825Z,7.30
2019-02-25T19:55:36.147Z,7.20
2019-02-25T19:58:08.295Z,7.10
2019-02-25T20:00:38.960Z,7.10
2019-02-25T20:03:09.667Z,7.20
2019-02-25T20:05:44.231Z,7.20
2019-02-25T20:08:14.581Z,7.20
2019-02-25T20:10:45.247Z,7.10
2019-02-25T20:13:15.824Z,7.10
2019-02-25T20:15:47.318Z,7.00
2019-02-25T20:18:19.112Z,6.90
2019-02-25T20:20:51.491Z,6.80
2019-02-25T20:23:22.815Z,6.70
2019-02-25T20:25:55.746Z,6.60
2019-02-25T20:28:29.166Z,6.50
2019-02-25T20:31:00.082Z,6.40
2019-02-25T20:33:33.016Z,6.30
2019-02-25T20:36:03.272Z,6.20
2019-02-25T20:38:34.789Z,6.20
2019-02-25T20:41:06.311Z,6.20
2019-02-25T20:43:37.115Z,6.20
2019-02-25T20:46:08.674Z,6.10
2019-02-25T20:48:39.398Z,6.00
2019-02-25T20:51:15.349Z,6.00
2019-02-25T20:53:46.678Z,5.90
2019-02-25T20:56:18.333Z,5.80
2019-02-25T20:58:49.233Z,5.80
2019-02-25T21:01:20.951Z,5.80
2019-02-25T21:03:52.678Z,5.80
2019-02-25T21:06:24.325Z,5.80
2019-02-25T21:08:54.975Z,5.80
2019-02-25T21:11:25.564Z,5.70
2019-02-25T21:13:56.713Z,5.70
2019-02-25T21:17:03.193Z,5.60
2019-02-25T21:19:37.882Z,5.60
2019-02-25T21:22:33.840Z,5.50
2019-02-25T21:25:07.281Z,5.50
2019-02-25T21:27:40.838Z,5.40
2019-02-25T21:30:37.181Z,5.40
2019-02-25T21:33:06.970Z,5.30
2019-02-25T21:38:41.890Z,5.10
2019-02-25T21:41:41.814Z,5.10
2019-02-25T21:48:07.668Z,5.00
2019-02-25T21:51:09.734Z,5.00
2019-02-25T21:53:46.745Z,5.00
2019-02-25T21:56:37.068Z,5.00
2019-02-25T21:59:08.750Z,5.00
2019-02-25T22:01:41.079Z,5.10
2019-02-25T22:07:17.126Z,5.10
2019-02-25T22:10:03.960Z,5.10
2019-02-25T22:12:46.443Z,5.10
2019-02-25T22:15:22.084Z,5.10
2019-02-25T22:18:04.410Z,5.10
2019-02-25T22:20:39.694Z,5.20
2019-02-25T22:23:21.983Z,5.40
2019-02-25T22:26:03.273Z,5.50
2019-02-25T22:28:39.326Z,5.40
2019-02-25T22:31:13.248Z,5.30
2019-02-25T22:34:03.631Z,5.30
2019-02-25T22:36:39.472Z,5.20
2019-02-25T22:39:33.874Z,5.10
2019-02-25T22:42:14.320Z,5.00
2019-02-25T22:44:56.152Z,5.00
2019-02-25T22:47:38.307Z,4.90
2019-02-25T22:50:15.580Z,4.80
2019-02-25T22:53:03.633Z,4.70
2019-02-25T22:55:44.683Z,4.70
2019-02-25T22:58:19.024Z,4.60
2019-02-25T23:01:04.662Z,4.70
2019-02-25T23:03:44.949Z,4.60
2019-02-25T23:06:18.451Z,4.60
2019-02-25T23:08:56.453Z,4.40
2019-02-25T23:11:34.390Z,4.40
2019-02-25T23:14:15.827Z,4.30
2019-02-25T23:17:08.840Z,4.20
2019-02-25T23:19:59.986Z,4.10
2019-02-25T23:22:38.739Z,4.10
2019-02-25T23:25:07.577Z,4.10
2019-02-25T23:27:38.989Z,4.20
2019-02-25T23:30:12.759Z,4.20
2019-02-25T23:32:47.263Z,4.20
2019-02-25T23:35:23.135Z,4.20
2019-02-25T23:37:56.733Z,4.10
2019-02-25T23:40:40.160Z,4.10
2019-02-25T23:43:14.949Z,4.00
2019-02-25T23:46:06.223Z,3.90
2019-02-25T23:51:37.186Z,3.90
2019-02-25T23:54:09.509Z,3.90
2019-02-25T23:56:43.906Z,3.90
2019-02-25T23:59:30.112Z,3.70
